createdAt,value
2023-01-12T00:00:36.901Z,100.00
2023-01-12T00:03:09.972Z,100.00
2023-01-12T00:05:43.059Z,100.00
2023-01-12T00:08:17.509Z,100.00
2023-01-12T00:10:50.550Z,100.00
2023-01-12T00:13:23.634Z,100.00
2023-01-12T00:16:16.191Z,100.00
2023-01-12T00:18:49.715Z,100.00
2023-01-12T00:21:22.765Z,100.00
2023-01-12T00:23:57.190Z,100.00
2023-01-12T00:26:30.219Z,100.00
2023-01-12T00:29:03.407Z,100.00
2023-01-12T00:31:36.673Z,100.00
2023-01-12T00:34:10.102Z,100.00
2023-01-12T00:36:44.071Z,100.00
2023-01-12T00:39:18.858Z,100.00
2023-01-12T00:42:09.275Z,100.00
2023-01-12T00:45:00.207Z,100.00
2023-01-12T00:47:33.390Z,100.00
2023-01-12T00:50:07.224Z,100.00
2023-01-12T00:52:40.285Z,100.00
2023-01-12T00:55:14.912Z,100.00
2023-01-12T00:57:48.093Z,100.00
2023-01-12T01:00:21.503Z,100.00
2023-01-12T01:02:54.569Z,100.00
2023-01-12T01:05:27.699Z,100.00
2023-01-12T01:08:00.754Z,100.00
2023-01-12T01:10:35.186Z,100.00
2023-01-12T01:13:08.279Z,100.00
2023-01-12T01:15:41.385Z,100.00
2023-01-12T01:18:14.475Z,100.00
2023-01-12T01:20:48.456Z,100.00
2023-01-12T01:23:21.798Z,100.00
2023-01-12T01:25:56.644Z,100.00
2023-01-12T01:28:29.697Z,100.00
2023-01-12T01:31:07.630Z,100.00
2023-01-12T01:33:41.656Z,100.00
2023-01-12T01:36:16.064Z,100.00
2023-01-12T01:38:51.312Z,100.00
2023-01-12T01:41:27.983Z,100.00
2023-01-12T01:44:03.861Z,100.00
2023-01-12T01:46:43.692Z,100.00
2023-01-12T01:49:29.970Z,100.00
2023-01-12T01:52:07.819Z,100.00
2023-01-12T01:54:45.255Z,100.00
2023-01-12T01:57:20.255Z,100.00
2023-01-12T01:59:56.905Z,100.00
2023-01-12T02:02:30.188Z,100.00
2023-01-12T02:05:03.693Z,100.00
2023-01-12T02:07:36.876Z,100.00
2023-01-12T02:10:11.637Z,100.00
2023-01-12T02:13:04.164Z,100.00
2023-01-12T02:16:07.223Z,100.00
2023-01-12T02:18:48.294Z,100.00
2023-01-12T02:21:44.667Z,100.00
2023-01-12T02:25:07.388Z,100.00
2023-01-12T02:28:22.084Z,100.00
2023-01-12T02:31:36.934Z,100.00
2023-01-12T02:34:24.509Z,100.00
2023-01-12T02:37:08.938Z,100.00
2023-01-12T02:39:46.381Z,100.00
2023-01-12T02:42:47.533Z,100.00
2023-01-12T02:45:33.667Z,100.00
2023-01-12T02:48:16.365Z,100.00
2023-01-12T02:50:57.253Z,100.00
2023-01-12T02:53:35.414Z,98.46
2023-01-12T02:56:09.216Z,98.93
2023-01-12T02:58:46.137Z,97.24
2023-01-12T03:01:21.631Z,98.33
2023-01-12T03:04:01.092Z,98.22
2023-01-12T03:06:46.493Z,97.13
2023-01-12T03:09:20.434Z,96.93
2023-01-12T03:11:59.819Z,96.75
2023-01-12T03:14:35.072Z,97.04
2023-01-12T03:17:15.920Z,99.43
2023-01-12T03:19:51.564Z,98.67
2023-01-12T03:22:25.316Z,96.82
2023-01-12T03:25:02.908Z,99.92
2023-01-12T03:27:40.252Z,99.06
2023-01-12T03:30:20.913Z,98.91
2023-01-12T03:32:54.155Z,99.54
2023-01-12T03:35:33.779Z,100.00
2023-01-12T03:38:14.158Z,99.84
2023-01-12T03:40:52.017Z,98.43
2023-01-12T03:43:32.654Z,100.00
2023-01-12T03:46:13.982Z,100.00
2023-01-12T03:48:52.687Z,100.00
2023-01-12T03:51:30.835Z,100.00
2023-01-12T03:54:05.843Z,100.00
2023-01-12T03:56:40.868Z,100.00
2023-01-12T03:59:15.320Z,100.00
2023-01-12T04:01:49.150Z,100.00
2023-01-12T04:04:23.660Z,100.00
2023-01-12T04:06:59.836Z,100.00
2023-01-12T04:09:34.102Z,100.00
2023-01-12T04:12:13.728Z,100.00
2023-01-12T04:14:48.635Z,100.00
2023-01-12T04:17:25.056Z,100.00
2023-01-12T04:19:58.103Z,100.00
2023-01-12T04:22:43.466Z,100.00
2023-01-12T04:25:19.481Z,100.00
2023-01-12T04:27:55.930Z,100.00
2023-01-12T04:30:30.726Z,100.00
2023-01-12T04:33:09.301Z,100.00
2023-01-12T04:35:42.390Z,100.00
2023-01-12T04:38:18.169Z,100.00
2023-01-12T04:40:55.277Z,100.00
2023-01-12T04:43:28.366Z,100.00
2023-01-12T04:46:07.283Z,100.00
2023-01-12T04:48:40.761Z,100.00
2023-01-12T04:51:14.024Z,100.00
2023-01-12T04:53:49.196Z,100.00
2023-01-12T04:56:22.403Z,100.00
2023-01-12T04:58:59.544Z,100.00
2023-01-12T05:01:32.709Z,100.00
2023-01-12T05:04:07.906Z,100.00
2023-01-12T05:06:41.299Z,100.00
2023-01-12T05:09:33.560Z,99.78
2023-01-12T05:12:07.238Z,98.14
2023-01-12T05:14:40.347Z,97.76
2023-01-12T05:17:13.482Z,99.02
2023-01-12T05:19:48.349Z,100.00
2023-01-12T05:22:21.393Z,100.00
2023-01-12T05:24:55.880Z,100.00
2023-01-12T05:27:28.937Z,100.00
2023-01-12T05:30:01.988Z,98.17
2023-01-12T05:32:38.216Z,97.05
2023-01-12T05:35:11.449Z,97.43
2023-01-12T05:37:44.536Z,98.51
2023-01-12T05:40:19.239Z,98.38
2023-01-12T05:43:22.089Z,96.84
2023-01-12T05:45:55.139Z,94.97
2023-01-12T05:48:28.210Z,94.14
2023-01-12T05:51:02.729Z,92.89
2023-01-12T05:53:35.867Z,91.43
2023-01-12T05:56:13.523Z,91.29
2023-01-12T05:58:51.247Z,90.68
2023-01-12T06:01:24.785Z,91.83
2023-01-12T06:04:00.612Z,91.53
2023-01-12T06:06:33.838Z,91.23
2023-01-12T06:09:06.995Z,89.90
2023-01-12T06:11:58.843Z,89.85
2023-01-12T06:14:31.977Z,90.18
2023-01-12T06:17:05.156Z,90.00
2023-01-12T06:19:38.988Z,89.28
2023-01-12T06:22:12.065Z,89.49
2023-01-12T06:24:48.026Z,90.15
2023-01-12T06:27:22.481Z,89.64
2023-01-12T06:29:55.546Z,88.13
2023-01-12T06:36:35.990Z,86.62
2023-01-12T06:39:09.064Z,87.56
2023-01-12T06:41:59.758Z,87.49
2023-01-12T06:44:34.152Z,86.43
2023-01-12T06:47:07.250Z,86.24
2023-01-12T06:49:40.291Z,85.40
2023-01-12T06:52:13.501Z,85.20
2023-01-12T06:54:46.563Z,85.23
2023-01-12T06:57:19.922Z,85.05
2023-01-12T06:59:54.408Z,84.73
2023-01-12T07:02:27.529Z,84.80
2023-01-12T07:05:00.627Z,84.40
2023-01-12T07:07:33.713Z,85.22
2023-01-12T07:10:07.395Z,86.41
2023-01-12T07:12:41.229Z,84.80
2023-01-12T07:15:16.447Z,85.10
2023-01-12T07:17:53.344Z,86.08
2023-01-12T07:20:28.538Z,84.15
2023-01-12T07:23:01.763Z,84.32
2023-01-12T07:25:34.875Z,83.94
2023-01-12T07:28:07.930Z,84.43
2023-01-12T07:30:42.331Z,83.97
2023-01-12T07:33:18.599Z,84.02
2023-01-12T07:35:51.856Z,84.14
2023-01-12T07:38:25.472Z,84.36
2023-01-12T07:41:00.157Z,83.91
2023-01-12T07:43:33.744Z,83.79
2023-01-12T07:46:08.316Z,83.73
2023-01-12T07:48:41.407Z,83.56
2023-01-12T07:51:14.695Z,83.25
2023-01-12T07:53:49.092Z,83.22
2023-01-12T07:56:22.209Z,83.45
2023-01-12T07:58:55.361Z,83.81
2023-01-12T08:01:32.435Z,82.39
2023-01-12T08:04:05.963Z,82.60
2023-01-12T08:06:39.126Z,83.83
2023-01-12T08:09:12.220Z,83.51
2023-01-12T08:11:45.305Z,82.91
2023-01-12T08:14:28.839Z,82.76
2023-01-12T08:17:04.937Z,82.96
2023-01-12T08:19:44.722Z,81.92
2023-01-12T08:22:22.082Z,82.83
2023-01-12T08:25:01.161Z,82.08
2023-01-12T08:27:38.749Z,81.45
2023-01-12T08:30:16.596Z,80.49
2023-01-12T08:32:51.349Z,80.31
2023-01-12T08:35:27.489Z,81.35
2023-01-12T08:38:00.728Z,80.06
2023-01-12T08:40:47.671Z,80.95
2023-01-12T08:43:40.677Z,79.67
2023-01-12T08:46:13.847Z,79.10
2023-01-12T08:48:48.294Z,78.31
2023-01-12T08:51:21.597Z,77.97
2023-01-12T08:53:54.731Z,78.17
2023-01-12T08:56:27.789Z,77.40
2023-01-12T08:59:01.754Z,77.94
2023-01-12T09:01:35.750Z,76.13
2023-01-12T09:04:10.283Z,77.04
2023-01-12T09:06:45.301Z,77.31
2023-01-12T09:09:21.924Z,76.18
2023-01-12T09:11:55.274Z,76.47
2023-01-12T09:14:29.460Z,76.74
2023-01-12T09:17:02.550Z,77.18
2023-01-12T09:19:37.110Z,77.33
2023-01-12T09:22:12.163Z,75.97
2023-01-12T09:24:45.517Z,76.95
2023-01-12T09:27:18.583Z,76.45
2023-01-12T09:29:51.610Z,76.51
2023-01-12T09:32:29.100Z,76.19
2023-01-12T09:35:11.012Z,76.51
2023-01-12T09:37:44.990Z,75.99
2023-01-12T09:40:20.509Z,76.58
2023-01-12T09:43:11.585Z,75.96
2023-01-12T09:46:03.125Z,76.94
2023-01-12T09:48:36.276Z,76.94
2023-01-12T09:51:18.446Z,75.60
2023-01-12T09:53:51.554Z,77.60
2023-01-12T09:56:30.728Z,76.89
2023-01-12T09:59:19.565Z,76.16
2023-01-12T10:01:54.412Z,76.81
2023-01-12T10:04:27.920Z,76.63
2023-01-12T10:07:02.429Z,76.73
2023-01-12T10:09:37.947Z,75.31
2023-01-12T10:12:22.861Z,75.96
2023-01-12T10:15:26.574Z,74.52
2023-01-12T10:18:05.470Z,75.86
2023-01-12T10:20:41.271Z,74.72
2023-01-12T10:23:24.618Z,76.53
2023-01-12T10:26:10.388Z,75.34
2023-01-12T10:28:46.561Z,74.76
2023-01-12T10:31:24.197Z,75.33
2023-01-12T10:34:06.944Z,75.55
2023-01-12T10:36:45.267Z,76.14
2023-01-12T10:39:32.240Z,74.63
2023-01-12T10:42:50.784Z,74.11
2023-01-12T10:45:25.859Z,74.82
2023-01-12T10:47:58.949Z,76.07
2023-01-12T10:50:35.179Z,76.47
2023-01-12T10:53:16.603Z,76.19
2023-01-12T10:55:51.240Z,75.86
2023-01-12T10:58:30.408Z,76.89
2023-01-12T11:01:06.532Z,74.92
2023-01-12T11:03:42.070Z,74.77
2023-01-12T11:06:27.840Z,76.56
2023-01-12T11:09:20.295Z,75.90
2023-01-12T11:12:00.695Z,75.06
2023-01-12T11:14:37.990Z,74.91
2023-01-12T11:17:32.835Z,75.45
2023-01-12T11:20:16.650Z,75.01
2023-01-12T11:22:54.633Z,75.79
2023-01-12T11:25:31.903Z,74.52
2023-01-12T11:28:15.621Z,74.83
2023-01-12T11:30:54.989Z,74.74
2023-01-12T11:33:33.855Z,75.47
2023-01-12T11:36:10.138Z,75.12
2023-01-12T11:38:46.377Z,74.94
2023-01-12T11:41:25.488Z,74.02
2023-01-12T11:44:12.153Z,75.39
2023-01-12T11:46:48.355Z,74.42
2023-01-12T11:49:28.152Z,74.57
2023-01-12T11:52:02.936Z,74.54
2023-01-12T11:54:39.605Z,73.92
2023-01-12T11:57:38.872Z,73.58
2023-01-12T12:00:33.038Z,74.29
2023-01-12T12:03:32.293Z,73.29
2023-01-12T12:06:22.678Z,73.93
2023-01-12T12:09:09.958Z,73.55
2023-01-12T12:11:51.961Z,73.24
2023-01-12T12:14:49.466Z,73.75
2023-01-12T12:17:33.489Z,74.16
2023-01-12T12:20:20.333Z,73.58
2023-01-12T12:23:07.863Z,72.60
2023-01-12T12:25:53.964Z,73.79
2023-01-12T12:28:48.310Z,72.04
2023-01-12T12:31:45.809Z,72.91
2023-01-12T12:34:49.282Z,73.06
2023-01-12T12:37:36.442Z,73.19
2023-01-12T12:40:25.221Z,73.70
2023-01-12T12:43:28.281Z,73.90
2023-01-12T12:46:10.651Z,73.93
2023-01-12T12:48:56.487Z,73.70
2023-01-12T12:51:34.010Z,73.88
2023-01-12T12:54:11.930Z,73.95
2023-01-12T12:56:45.903Z,72.81
2023-01-12T12:59:59.750Z,72.67
2023-01-12T13:02:39.575Z,73.18
2023-01-12T13:05:12.631Z,72.37
2023-01-12T13:07:53.699Z,72.28
2023-01-12T13:10:32.837Z,71.80
2023-01-12T13:13:30.395Z,72.67
2023-01-12T13:16:49.133Z,72.74
2023-01-12T13:19:38.787Z,72.30
2023-01-12T13:22:32.171Z,72.35
2023-01-12T13:25:57.445Z,71.86
2023-01-12T13:28:30.429Z,71.13
2023-01-12T13:31:06.384Z,71.00
2023-01-12T13:33:39.411Z,70.67
2023-01-12T13:36:12.467Z,70.63
2023-01-12T13:39:04.919Z,70.93
2023-01-12T13:42:04.049Z,71.56
2023-01-12T13:44:41.248Z,72.27
2023-01-12T13:47:20.314Z,71.04
2023-01-12T13:49:58.236Z,71.14
2023-01-12T13:52:34.077Z,71.70
2023-01-12T13:55:20.926Z,71.97
2023-01-12T13:58:01.087Z,73.22
2023-01-12T14:00:35.063Z,73.04
2023-01-12T14:03:22.836Z,73.71
2023-01-12T14:06:03.511Z,74.06
2023-01-12T14:09:01.009Z,73.82
2023-01-12T14:12:25.018Z,73.38
2023-01-12T14:15:33.358Z,72.56
2023-01-12T14:18:09.176Z,73.81
2023-01-12T14:20:45.957Z,74.00
2023-01-12T14:23:23.936Z,75.29
2023-01-12T14:26:14.726Z,74.02
2023-01-12T14:28:50.363Z,74.53
2023-01-12T14:31:37.503Z,75.79
2023-01-12T14:34:27.421Z,75.56
2023-01-12T14:37:01.335Z,75.15
2023-01-12T14:39:41.290Z,75.54
2023-01-12T14:42:36.101Z,75.50
2023-01-12T14:45:42.281Z,74.78
2023-01-12T14:48:28.793Z,75.37
2023-01-12T14:51:13.147Z,76.53
2023-01-12T14:53:48.986Z,76.16
2023-01-12T14:56:25.090Z,75.62
2023-01-12T14:59:10.248Z,75.09
2023-01-12T15:01:44.042Z,73.82
2023-01-12T15:04:22.207Z,75.65
2023-01-12T15:07:03.520Z,74.62
2023-01-12T15:09:52.995Z,73.91
2023-01-12T15:12:47.322Z,74.58
2023-01-12T15:15:23.828Z,75.68
2023-01-12T15:18:14.909Z,74.66
2023-01-12T15:21:06.771Z,74.33
2023-01-12T15:23:57.246Z,73.88
2023-01-12T15:26:30.216Z,75.05
2023-01-12T15:29:03.248Z,74.82
2023-01-12T15:31:38.649Z,73.93
2023-01-12T15:34:12.857Z,75.16
2023-01-12T15:36:47.175Z,75.93
2023-01-12T15:39:20.379Z,75.83
2023-01-12T15:42:10.959Z,75.41
2023-01-12T15:44:45.055Z,75.55
2023-01-12T15:47:19.987Z,75.67
2023-01-12T15:49:53.442Z,76.00
2023-01-12T15:52:28.182Z,75.09
2023-01-12T15:55:01.216Z,74.37
2023-01-12T15:57:34.256Z,76.04
2023-01-12T16:00:11.113Z,74.89
2023-01-12T16:02:47.724Z,74.61
2023-01-12T16:05:23.629Z,75.39
2023-01-12T16:07:58.223Z,75.61
2023-01-12T16:10:31.218Z,75.70
2023-01-12T16:13:07.821Z,75.06
2023-01-12T16:15:40.879Z,74.71
2023-01-12T16:18:14.783Z,76.04
2023-01-12T16:20:47.919Z,75.69
2023-01-12T16:23:22.264Z,74.47
2023-01-12T16:25:57.234Z,75.27
2023-01-12T16:28:30.657Z,75.61
2023-01-12T16:31:07.476Z,75.72
2023-01-12T16:33:42.079Z,75.85
2023-01-12T16:36:16.053Z,75.77
2023-01-12T16:38:51.948Z,74.36
2023-01-12T16:41:25.180Z,75.80
2023-01-12T16:44:00.418Z,75.84
2023-01-12T16:46:33.471Z,76.30
2023-01-12T16:49:06.772Z,75.19
2023-01-12T16:51:39.781Z,75.19
2023-01-12T16:54:14.082Z,75.47
2023-01-12T16:56:47.111Z,76.12
2023-01-12T16:59:20.094Z,75.85
2023-01-12T17:01:53.341Z,75.83
2023-01-12T17:04:26.532Z,74.90
2023-01-12T17:06:59.764Z,74.88
2023-01-12T17:09:35.680Z,74.79
2023-01-12T17:12:09.309Z,74.14
2023-01-12T17:14:42.652Z,75.19
2023-01-12T17:17:15.983Z,75.28
2023-01-12T17:19:49.198Z,74.90
2023-01-12T17:22:22.269Z,74.12
2023-01-12T17:24:56.898Z,74.77
2023-01-12T17:27:29.971Z,74.92
2023-01-12T17:30:03.034Z,75.47
2023-01-12T17:32:36.374Z,76.06
2023-01-12T17:35:10.420Z,75.57
2023-01-12T17:37:43.483Z,75.89
2023-01-12T17:40:18.445Z,74.72
2023-01-12T17:43:02.864Z,75.26
2023-01-12T17:45:42.532Z,74.86
2023-01-12T17:48:19.176Z,75.79
2023-01-12T17:50:52.206Z,75.69
2023-01-12T17:53:25.252Z,75.20
2023-01-12T17:56:03.875Z,76.14
2023-01-12T17:58:37.534Z,75.64
2023-01-12T18:01:14.413Z,74.81
2023-01-12T18:03:47.471Z,75.16
2023-01-12T18:06:26.388Z,75.79
2023-01-12T18:09:00.745Z,75.30
2023-01-12T18:11:36.036Z,74.68
2023-01-12T18:14:09.704Z,74.13
2023-01-12T18:16:42.709Z,75.18
2023-01-12T18:19:15.791Z,75.75
2023-01-12T18:21:51.067Z,76.09
2023-01-12T18:24:24.076Z,76.68
2023-01-12T18:26:58.432Z,74.30
2023-01-12T18:29:31.458Z,75.49
2023-01-12T18:32:06.401Z,74.16
2023-01-12T18:34:39.815Z,74.76
2023-01-12T18:37:13.757Z,75.41
2023-01-12T18:39:46.975Z,74.85
2023-01-12T18:42:38.897Z,74.25
2023-01-12T18:45:12.140Z,75.02
2023-01-12T18:48:07.916Z,74.75
2023-01-12T18:50:58.501Z,74.93
2023-01-12T18:53:33.494Z,73.74
2023-01-12T18:56:07.353Z,75.39
2023-01-12T18:58:43.103Z,74.00
2023-01-12T19:01:20.768Z,74.11
2023-01-12T19:03:53.932Z,74.97
2023-01-12T19:06:42.416Z,74.18
2023-01-12T19:09:32.889Z,75.00
2023-01-12T19:12:07.348Z,75.28
2023-01-12T19:14:59.271Z,74.79
2023-01-12T19:17:32.939Z,74.28
2023-01-12T19:20:09.181Z,73.66
2023-01-12T19:23:00.041Z,75.12
2023-01-12T19:25:50.709Z,74.60
2023-01-12T19:28:36.399Z,75.08
2023-01-12T19:31:15.059Z,74.64
2023-01-12T19:33:48.058Z,74.59
2023-01-12T19:36:21.053Z,75.70
2023-01-12T19:38:54.351Z,74.88
2023-01-12T19:41:50.171Z,74.70
2023-01-12T19:44:23.244Z,75.36
2023-01-12T19:46:57.601Z,75.27
2023-01-12T19:49:30.600Z,75.47
2023-01-12T19:52:03.620Z,75.46
2023-01-12T19:54:36.976Z,75.59
2023-01-12T19:57:09.971Z,75.25
2023-01-12T19:59:44.824Z,76.49
2023-01-12T20:02:19.290Z,76.40
2023-01-12T20:04:52.377Z,74.96
2023-01-12T20:07:25.535Z,75.38
2023-01-12T20:09:59.820Z,74.90
2023-01-12T20:12:33.017Z,75.67
2023-01-12T20:15:07.204Z,75.57
2023-01-12T20:17:41.883Z,75.48
2023-01-12T20:20:15.828Z,76.66
2023-01-12T20:22:50.814Z,76.53
2023-01-12T20:25:28.039Z,75.54
2023-01-12T20:28:01.307Z,76.06
2023-01-12T20:30:38.775Z,75.48
2023-01-12T20:33:13.539Z,75.72
2023-01-12T20:35:48.077Z,74.67
2023-01-12T20:38:22.596Z,74.24
2023-01-12T20:40:55.714Z,75.63
2023-01-12T20:43:28.775Z,75.47
2023-01-12T20:46:02.291Z,75.33
2023-01-12T20:48:37.284Z,75.11
2023-01-12T20:51:13.255Z,75.65
2023-01-12T20:53:46.362Z,75.26
2023-01-12T20:56:20.682Z,73.66
2023-01-12T20:58:53.769Z,75.19
2023-01-12T21:01:27.198Z,75.77
2023-01-12T21:04:01.744Z,74.71
2023-01-12T21:06:34.799Z,74.72
2023-01-12T21:09:07.993Z,74.09
2023-01-12T21:11:42.248Z,73.88
2023-01-12T21:14:15.315Z,73.48
2023-01-12T21:16:48.466Z,74.35
2023-01-12T21:19:23.076Z,74.23
2023-01-12T21:21:56.253Z,75.00
2023-01-12T21:24:30.365Z,73.78
2023-01-12T21:27:03.483Z,74.49
2023-01-12T21:29:36.544Z,74.33
2023-01-12T21:32:09.640Z,74.41
2023-01-12T21:34:44.090Z,75.08
2023-01-12T21:37:17.151Z,75.09
2023-01-12T21:39:50.286Z,74.14
2023-01-12T21:42:40.869Z,73.65
2023-01-12T21:45:14.002Z,74.02
2023-01-12T21:47:47.065Z,73.14
2023-01-12T21:50:21.500Z,73.20
2023-01-12T21:52:54.565Z,74.16
2023-01-12T21:55:27.654Z,73.92
2023-01-12T21:58:02.894Z,72.83
2023-01-12T22:00:39.009Z,73.59
2023-01-12T22:03:12.048Z,74.16
2023-01-12T22:05:47.815Z,73.06
2023-01-12T22:08:21.450Z,73.40
2023-01-12T22:10:54.542Z,73.10
2023-01-12T22:13:27.617Z,74.33
2023-01-12T22:16:04.505Z,73.26
2023-01-12T22:18:38.750Z,72.91
2023-01-12T22:21:13.820Z,73.67
2023-01-12T22:23:47.598Z,74.27
2023-01-12T22:26:21.143Z,75.13
2023-01-12T22:28:54.210Z,73.71
2023-01-12T22:31:27.400Z,73.11
2023-01-12T22:34:05.441Z,74.58
2023-01-12T22:36:43.120Z,73.62
2023-01-12T22:39:16.445Z,73.04
2023-01-12T22:41:50.752Z,73.71
2023-01-12T22:44:25.551Z,73.32
2023-01-12T22:46:58.634Z,73.03
2023-01-12T22:49:31.702Z,73.93
2023-01-12T22:52:06.778Z,72.94
2023-01-12T22:54:39.865Z,72.03
2023-01-12T22:57:13.186Z,72.26
2023-01-12T22:59:46.243Z,72.83
2023-01-12T23:02:37.197Z,71.98
2023-01-12T23:05:10.656Z,71.62
2023-01-12T23:07:45.192Z,70.70
2023-01-12T23:10:18.731Z,72.24
2023-01-12T23:13:09.581Z,71.89
2023-01-12T23:15:47.023Z,70.94
2023-01-12T23:18:23.572Z,72.09
2023-01-12T23:21:03.435Z,71.63
2023-01-12T23:23:38.253Z,71.65
2023-01-12T23:26:16.611Z,70.51
2023-01-12T23:28:52.045Z,71.08
2023-01-12T23:31:27.940Z,71.41
2023-01-12T23:34:01.387Z,71.79
2023-01-12T23:36:35.977Z,71.69
2023-01-12T23:39:12.349Z,71.54
2023-01-12T23:41:45.604Z,71.97
2023-01-12T23:44:19.247Z,71.04
2023-01-12T23:46:53.940Z,71.43
2023-01-12T23:49:27.115Z,71.30
2023-01-12T23:52:00.288Z,71.62
2023-01-12T23:54:35.073Z,72.58
2023-01-12T23:57:08.252Z,72.39
2023-01-12T23:59:41.450Z,73.17
